sensor_id;sensor_type;location;lat;lon;timestamp;pressure;altitude;pressure_sealevel;temperature;humidity
23229;BME280;11783;50.350;6.576;2024-02-14T00:00:19;96327.03;;;4.72;100.00
23229;BME280;11783;50.350;6.576;2024-02-14T00:02:46;96321.38;;;4.69;100.00
23229;BME280;11783;50.350;6.576;2024-02-14T00:05:14;96331.28;;;4.86;100.00
23229;BME280;11783;50.350;6.576;2024-02-14T00:07:40;96316.88;;;4.89;100.00
23229;BME280;11783;50.350;6.576;2024-02-14T00:10:05;96325.78;;;4.88;100.00
23229;BME280;11783;50.350;6.576;2024-02-14T00:12:32;96321.53;;;4.80;100.00
23229;BME280;11783;50.350;6.576;2024-02-14T00:14:58;96323.16;;;4.75;100.00
23229;BME280;11783;50.350;6.576;2024-02-14T00:17:23;96332.06;;;4.80;100.00
23229;BME280;11783;50.350;6.576;2024-02-14T00:19:49;96333.91;;;4.80;100.00
23229;BME280;11783;50.350;6.576;2024-02-14T00:22:14;96317.69;;;4.90;100.00
23229;BME280;11783;50.350;6.576;2024-02-14T00:24:41;96325.97;;;5.00;100.00
23229;BME280;11783;50.350;6.576;2024-02-14T00:27:06;96330.63;;;4.98;100.00
23229;BME280;11783;50.350;6.576;2024-02-14T00:29:32;96323.94;;;5.08;100.00
23229;BME280;11783;50.350;6.576;2024-02-14T00:32:00;96314.66;;;4.79;100.00
23229;BME280;11783;50.350;6.576;2024-02-14T00:34:25;96318.31;;;4.85;100.00
23229;BME280;11783;50.350;6.576;2024-02-14T00:36:51;96319.28;;;4.97;100.00
23229;BME280;11783;50.350;6.576;2024-02-14T00:39:16;96323.34;;;4.93;100.00
23229;BME280;11783;50.350;6.576;2024-02-14T00:41:41;96312.81;;;5.06;100.00
23229;BME280;11783;50.350;6.576;2024-02-14T00:44:07;96324.97;;;4.94;100.00
23229;BME280;11783;50.350;6.576;2024-02-14T00:46:32;96317.28;;;4.79;100.00
23229;BME280;11783;50.350;6.576;2024-02-14T00:48:57;96311.81;;;4.88;100.00
23229;BME280;11783;50.350;6.576;2024-02-14T00:51:23;96316.50;;;4.85;100.00
23229;BME280;11783;50.350;6.576;2024-02-14T00:53:48;96300.88;;;4.91;100.00
23229;BME280;11783;50.350;6.576;2024-02-14T00:56:14;96300.22;;;5.02;100.00
23229;BME280;11783;50.350;6.576;2024-02-14T00:58:39;96301.28;;;4.88;100.00
23229;BME280;11783;50.350;6.576;2024-02-14T01:01:05;96307.16;;;5.03;100.00
23229;BME280;11783;50.350;6.576;2024-02-14T01:03:31;96307.94;;;5.03;100.00
23229;BME280;11783;50.350;6.576;2024-02-14T01:05:56;96315.44;;;5.06;100.00
23229;BME280;11783;50.350;6.576;2024-02-14T01:08:22;96300.44;;;5.07;100.00
23229;BME280;11783;50.350;6.576;2024-02-14T01:10:47;96293.56;;;5.06;100.00
23229;BME280;11783;50.350;6.576;2024-02-14T01:13:14;96285.84;;;4.98;100.00
23229;BME280;11783;50.350;6.576;2024-02-14T01:15:40;96279.56;;;4.99;100.00
23229;BME280;11783;50.350;6.576;2024-02-14T01:18:06;96295.38;;;5.05;100.00
23229;BME280;11783;50.350;6.576;2024-02-14T01:20:32;96291.50;;;5.01;100.00
23229;BME280;11783;50.350;6.576;2024-02-14T01:22:57;96288.66;;;5.16;100.00
23229;BME280;11783;50.350;6.576;2024-02-14T01:25:23;96304.69;;;5.08;100.00
23229;BME280;11783;50.350;6.576;2024-02-14T01:27:48;96300.59;;;5.18;100.00
23229;BME280;11783;50.350;6.576;2024-02-14T01:30:14;96296.69;;;5.34;100.00
23229;BME280;11783;50.350;6.576;2024-02-14T01:32:40;96305.88;;;5.25;100.00
23229;BME280;11783;50.350;6.576;2024-02-14T01:35:05;96304.81;;;5.33;100.00
23229;BME280;11783;50.350;6.576;2024-02-14T01:37:31;96316.81;;;5.22;100.00
23229;BME280;11783;50.350;6.576;2024-02-14T01:39:56;96305.88;;;5.18;100.00
23229;BME280;11783;50.350;6.576;2024-02-14T01:42:22;96295.75;;;5.22;100.00
23229;BME280;11783;50.350;6.576;2024-02-14T01:44:47;96307.09;;;5.23;100.00
23229;BME280;11783;50.350;6.576;2024-02-14T01:47:13;96295.28;;;5.32;100.00
23229;BME280;11783;50.350;6.576;2024-02-14T01:50:00;96294.06;;;5.41;100.00
23229;BME280;11783;50.350;6.576;2024-02-14T01:52:26;96296.47;;;5.42;100.00
23229;BME280;11783;50.350;6.576;2024-02-14T01:54:52;96304.78;;;5.46;100.00
23229;BME280;11783;50.350;6.576;2024-02-14T01:57:20;96294.44;;;5.44;100.00
23229;BME280;11783;50.350;6.576;2024-02-14T01:59:47;96294.88;;;5.35;100.00
23229;BME280;11783;50.350;6.576;2024-02-14T02:02:14;96296.06;;;5.45;100.00
23229;BME280;11783;50.350;6.576;2024-02-14T02:04:39;96285.19;;;5.22;100.00
23229;BME280;11783;50.350;6.576;2024-02-14T02:07:05;96286.38;;;5.33;100.00
23229;BME280;11783;50.350;6.576;2024-02-14T02:09:30;96277.41;;;5.47;100.00
23229;BME280;11783;50.350;6.576;2024-02-14T02:11:56;96284.16;;;5.30;100.00
23229;BME280;11783;50.350;6.576;2024-02-14T02:14:22;96288.63;;;5.29;100.00
23229;BME280;11783;50.350;6.576;2024-02-14T02:16:47;96278.25;;;5.34;100.00
23229;BME280;11783;50.350;6.576;2024-02-14T02:19:14;96286.38;;;5.33;100.00
23229;BME280;11783;50.350;6.576;2024-02-14T02:21:42;96280.06;;;5.34;100.00
23229;BME280;11783;50.350;6.576;2024-02-14T02:24:11;96269.19;;;5.17;100.00
23229;BME280;11783;50.350;6.576;2024-02-14T02:26:37;96273.19;;;5.33;100.00
23229;BME280;11783;50.350;6.576;2024-02-14T02:29:02;96266.69;;;5.35;100.00
23229;BME280;11783;50.350;6.576;2024-02-14T02:31:27;96273.22;;;5.20;100.00
23229;BME280;11783;50.350;6.576;2024-02-14T02:33:53;96272.81;;;5.29;100.00
23229;BME280;11783;50.350;6.576;2024-02-14T02:36:18;96280.50;;;5.31;100.00
23229;BME280;11783;50.350;6.576;2024-02-14T02:38:44;96283.59;;;5.14;100.00
23229;BME280;11783;50.350;6.576;2024-02-14T02:41:09;96290.88;;;5.19;100.00
23229;BME280;11783;50.350;6.576;2024-02-14T02:43:34;96281.56;;;5.23;100.00
23229;BME280;11783;50.350;6.576;2024-02-14T02:46:00;96288.25;;;5.12;100.00
23229;BME280;11783;50.350;6.576;2024-02-14T02:48:26;96295.88;;;5.34;100.00
23229;BME280;11783;50.350;6.576;2024-02-14T02:50:52;96296.28;;;5.44;100.00
23229;BME280;11783;50.350;6.576;2024-02-14T02:53:18;96286.16;;;5.34;100.00
23229;BME280;11783;50.350;6.576;2024-02-14T02:55:43;96280.28;;;5.32;100.00
23229;BME280;11783;50.350;6.576;2024-02-14T02:58:10;96297.94;;;5.32;100.00
23229;BME280;11783;50.350;6.576;2024-02-14T03:00:35;96285.53;;;5.39;100.00
23229;BME280;11783;50.350;6.576;2024-02-14T03:03:01;96286.53;;;5.44;100.00
23229;BME280;11783;50.350;6.576;2024-02-14T03:05:27;96285.59;;;5.26;100.00
23229;BME280;11783;50.350;6.576;2024-02-14T03:07:54;96293.84;;;5.42;100.00
23229;BME280;11783;50.350;6.576;2024-02-14T03:10:22;96283.06;;;5.51;100.00
23229;BME280;11783;50.350;6.576;2024-02-14T03:12:48;96297.22;;;5.56;100.00
23229;BME280;11783;50.350;6.576;2024-02-14T03:15:14;96315.72;;;5.50;100.00
23229;BME280;11783;50.350;6.576;2024-02-14T03:17:40;96316.28;;;5.58;100.00
23229;BME280;11783;50.350;6.576;2024-02-14T03:20:06;96311.25;;;5.50;100.00
23229;BME280;11783;50.350;6.576;2024-02-14T03:22:42;96320.34;;;5.61;100.00
23229;BME280;11783;50.350;6.576;2024-02-14T03:25:21;96300.06;;;5.55;100.00
23229;BME280;11783;50.350;6.576;2024-02-14T03:27:48;96311.88;;;5.45;100.00
23229;BME280;11783;50.350;6.576;2024-02-14T03:30:18;96315.78;;;5.30;100.00
23229;BME280;11783;50.350;6.576;2024-02-14T03:32:44;96304.00;;;5.32;100.00
23229;BME280;11783;50.350;6.576;2024-02-14T03:35:09;96303.22;;;5.25;100.00
23229;BME280;11783;50.350;6.576;2024-02-14T03:37:37;96309.44;;;5.37;100.00
23229;BME280;11783;50.350;6.576;2024-02-14T03:40:05;96312.25;;;5.49;100.00
23229;BME280;11783;50.350;6.576;2024-02-14T03:42:30;96299.25;;;5.54;100.00
23229;BME280;11783;50.350;6.576;2024-02-14T03:44:56;96305.75;;;5.52;100.00
23229;BME280;11783;50.350;6.576;2024-02-14T03:47:28;96309.19;;;5.52;100.00
23229;BME280;11783;50.350;6.576;2024-02-14T03:49:54;96303.34;;;5.50;100.00
23229;BME280;11783;50.350;6.576;2024-02-14T03:52:20;96317.28;;;5.57;100.00
23229;BME280;11783;50.350;6.576;2024-02-14T03:54:47;96308.84;;;5.42;100.00
23229;BME280;11783;50.350;6.576;2024-02-14T03:57:13;96316.72;;;5.48;100.00
23229;BME280;11783;50.350;6.576;2024-02-14T03:59:38;96301.88;;;5.61;100.00
23229;BME280;11783;50.350;6.576;2024-02-14T04:02:04;96303.50;;;5.62;100.00
23229;BME280;11783;50.350;6.576;2024-02-14T04:04:32;96294.31;;;5.71;100.00
23229;BME280;11783;50.350;6.576;2024-02-14T04:06:58;96308.59;;;5.50;100.00
23229;BME280;11783;50.350;6.576;2024-02-14T04:09:26;96307.66;;;5.31;100.00
23229;BME280;11783;50.350;6.576;2024-02-14T04:11:51;96313.25;;;5.55;100.00
23229;BME280;11783;50.350;6.576;2024-02-14T04:14:17;96318.50;;;5.61;100.00
23229;BME280;11783;50.350;6.576;2024-02-14T04:16:42;96308.94;;;5.67;100.00
23229;BME280;11783;50.350;6.576;2024-02-14T04:19:07;96329.47;;;5.52;100.00
23229;BME280;11783;50.350;6.576;2024-02-14T04:21:37;96319.91;;;5.64;100.00
23229;BME280;11783;50.350;6.576;2024-02-14T04:24:03;96328.41;;;5.66;100.00
23229;BME280;11783;50.350;6.576;2024-02-14T04:26:29;96328.25;;;5.61;100.00
23229;BME280;11783;50.350;6.576;2024-02-14T04:28:54;96336.03;;;5.42;100.00
23229;BME280;11783;50.350;6.576;2024-02-14T04:31:20;96340.19;;;5.57;100.00
23229;BME280;11783;50.350;6.576;2024-02-14T04:33:45;96337.19;;;5.60;100.00
23229;BME280;11783;50.350;6.576;2024-02-14T04:36:20;96339.84;;;5.46;100.00
23229;BME280;11783;50.350;6.576;2024-02-14T04:38:46;96345.06;;;5.66;100.00
23229;BME280;11783;50.350;6.576;2024-02-14T04:41:12;96359.44;;;5.70;100.00
23229;BME280;11783;50.350;6.576;2024-02-14T04:43:38;96359.41;;;5.77;100.00
23229;BME280;11783;50.350;6.576;2024-02-14T04:46:04;96351.28;;;5.78;100.00
23229;BME280;11783;50.350;6.576;2024-02-14T04:48:35;96344.88;;;5.55;100.00
23229;BME280;11783;50.350;6.576;2024-02-14T04:51:02;96342.66;;;5.52;100.00
23229;BME280;11783;50.350;6.576;2024-02-14T04:53:28;96346.69;;;5.61;100.00
23229;BME280;11783;50.350;6.576;2024-02-14T04:55:53;96351.97;;;5.61;100.00
23229;BME280;11783;50.350;6.576;2024-02-14T04:58:19;96352.19;;;5.59;100.00
23229;BME280;11783;50.350;6.576;2024-02-14T05:00:45;96352.53;;;5.69;100.00
23229;BME280;11783;50.350;6.576;2024-02-14T05:03:10;96353.72;;;5.73;100.00
23229;BME280;11783;50.350;6.576;2024-02-14T05:05:36;96355.41;;;5.55;100.00
23229;BME280;11783;50.350;6.576;2024-02-14T05:08:02;96354.22;;;5.51;100.00
23229;BME280;11783;50.350;6.576;2024-02-14T05:10:28;96354.41;;;5.62;100.00
23229;BME280;11783;50.350;6.576;2024-02-14T05:12:54;96352.59;;;5.50;100.00
23229;BME280;11783;50.350;6.576;2024-02-14T05:15:19;96359.31;;;5.39;100.00
23229;BME280;11783;50.350;6.576;2024-02-14T05:17:45;96362.13;;;5.51;100.00
23229;BME280;11783;50.350;6.576;2024-02-14T05:20:11;96365.59;;;5.38;100.00
23229;BME280;11783;50.350;6.576;2024-02-14T05:22:37;96354.47;;;5.42;100.00
23229;BME280;11783;50.350;6.576;2024-02-14T05:25:03;96351.84;;;5.42;100.00
23229;BME280;11783;50.350;6.576;2024-02-14T05:27:30;96360.94;;;5.46;100.00
23229;BME280;11783;50.350;6.576;2024-02-14T05:29:55;96358.13;;;5.41;100.00
23229;BME280;11783;50.350;6.576;2024-02-14T05:32:21;96359.28;;;5.59;100.00
23229;BME280;11783;50.350;6.576;2024-02-14T05:34:46;96365.00;;;5.42;100.00
23229;BME280;11783;50.350;6.576;2024-02-14T05:37:12;96364.63;;;5.32;100.00
23229;BME280;11783;50.350;6.576;2024-02-14T05:39:39;96361.56;;;5.42;100.00
23229;BME280;11783;50.350;6.576;2024-02-14T05:42:04;96359.28;;;5.52;100.00
23229;BME280;11783;50.350;6.576;2024-02-14T05:44:30;96365.91;;;5.74;100.00
23229;BME280;11783;50.350;6.576;2024-02-14T05:46:56;96363.84;;;5.83;100.00
23229;BME280;11783;50.350;6.576;2024-02-14T05:49:22;96374.56;;;5.88;100.00
23229;BME280;11783;50.350;6.576;2024-02-14T05:51:47;96372.22;;;5.67;100.00
23229;BME280;11783;50.350;6.576;2024-02-14T05:54:13;96364.75;;;5.57;100.00
23229;BME280;11783;50.350;6.576;2024-02-14T05:56:38;96365.09;;;5.74;100.00
23229;BME280;11783;50.350;6.576;2024-02-14T05:59:03;96365.16;;;5.61;100.00
23229;BME280;11783;50.350;6.576;2024-02-14T06:01:29;96365.53;;;5.58;100.00
23229;BME280;11783;50.350;6.576;2024-02-14T06:03:55;96369.56;;;5.73;100.00
23229;BME280;11783;50.350;6.576;2024-02-14T06:06:20;96370.81;;;5.64;100.00
23229;BME280;11783;50.350;6.576;2024-02-14T06:08:46;96359.06;;;5.54;100.00
23229;BME280;11783;50.350;6.576;2024-02-14T06:11:11;96375.13;;;5.45;100.00
23229;BME280;11783;50.350;6.576;2024-02-14T06:13:39;96380.34;;;5.65;100.00
23229;BME280;11783;50.350;6.576;2024-02-14T06:16:05;96374.81;;;5.73;100.00
23229;BME280;11783;50.350;6.576;2024-02-14T06:18:30;96368.16;;;5.71;100.00
23229;BME280;11783;50.350;6.576;2024-02-14T06:20:56;96379.16;;;5.61;100.00
23229;BME280;11783;50.350;6.576;2024-02-14T06:23:21;96377.53;;;5.54;100.00
23229;BME280;11783;50.350;6.576;2024-02-14T06:25:47;96375.28;;;5.64;100.00
23229;BME280;11783;50.350;6.576;2024-02-14T06:28:12;96378.59;;;5.46;100.00
23229;BME280;11783;50.350;6.576;2024-02-14T06:30:37;96382.03;;;5.46;100.00
23229;BME280;11783;50.350;6.576;2024-02-14T06:33:03;96388.88;;;5.54;100.00
23229;BME280;11783;50.350;6.576;2024-02-14T06:35:29;96390.94;;;5.59;100.00
23229;BME280;11783;50.350;6.576;2024-02-14T06:37:54;96386.03;;;5.62;100.00
23229;BME280;11783;50.350;6.576;2024-02-14T06:40:19;96387.41;;;5.71;100.00
23229;BME280;11783;50.350;6.576;2024-02-14T06:42:45;96393.75;;;5.57;100.00
23229;BME280;11783;50.350;6.576;2024-02-14T06:45:11;96396.38;;;5.64;100.00
23229;BME280;11783;50.350;6.576;2024-02-14T06:47:36;96392.94;;;5.57;100.00
23229;BME280;11783;50.350;6.576;2024-02-14T06:50:01;96403.03;;;5.73;100.00
23229;BME280;11783;50.350;6.576;2024-02-14T06:52:27;96413.16;;;5.76;100.00
23229;BME280;11783;50.350;6.576;2024-02-14T06:54:52;96414.03;;;5.57;100.00
23229;BME280;11783;50.350;6.576;2024-02-14T06:57:18;96409.16;;;5.60;100.00
23229;BME280;11783;50.350;6.576;2024-02-14T06:59:43;96414.03;;;5.63;100.00
23229;BME280;11783;50.350;6.576;2024-02-14T07:02:08;96416.00;;;5.81;100.00
23229;BME280;11783;50.350;6.576;2024-02-14T07:04:34;96408.31;;;5.73;100.00
23229;BME280;11783;50.350;6.576;2024-02-14T07:06:59;96417.63;;;5.75;100.00
23229;BME280;11783;50.350;6.576;2024-02-14T07:09:26;96407.69;;;5.77;100.00
23229;BME280;11783;50.350;6.576;2024-02-14T07:11:51;96408.06;;;5.88;100.00
23229;BME280;11783;50.350;6.576;2024-02-14T07:14:19;96400.38;;;5.80;100.00
23229;BME280;11783;50.350;6.576;2024-02-14T07:16:44;96400.56;;;5.91;100.00
23229;BME280;11783;50.350;6.576;2024-02-14T07:19:09;96412.31;;;5.89;100.00
23229;BME280;11783;50.350;6.576;2024-02-14T07:21:35;96410.69;;;6.01;100.00
23229;BME280;11783;50.350;6.576;2024-02-14T07:24:04;96405.63;;;5.99;100.00
23229;BME280;11783;50.350;6.576;2024-02-14T07:26:29;96416.16;;;5.93;100.00
23229;BME280;11783;50.350;6.576;2024-02-14T07:28:54;96410.91;;;5.86;100.00
23229;BME280;11783;50.350;6.576;2024-02-14T07:31:20;96416.63;;;5.76;100.00
23229;BME280;11783;50.350;6.576;2024-02-14T07:33:45;96438.91;;;5.94;100.00
23229;BME280;11783;50.350;6.576;2024-02-14T07:36:12;96434.66;;;5.80;100.00
23229;BME280;11783;50.350;6.576;2024-02-14T07:38:38;96431.22;;;5.79;100.00
23229;BME280;11783;50.350;6.576;2024-02-14T07:41:03;96430.19;;;5.87;100.00
23229;BME280;11783;50.350;6.576;2024-02-14T07:43:29;96439.31;;;5.97;100.00
23229;BME280;11783;50.350;6.576;2024-02-14T07:45:54;96440.13;;;5.98;100.00
23229;BME280;11783;50.350;6.576;2024-02-14T07:48:19;96446.56;;;6.08;100.00
23229;BME280;11783;50.350;6.576;2024-02-14T07:50:45;96445.50;;;6.23;100.00
23229;BME280;11783;50.350;6.576;2024-02-14T07:53:10;96444.91;;;6.21;100.00
23229;BME280;11783;50.350;6.576;2024-02-14T07:55:36;96453.56;;;6.28;100.00
23229;BME280;11783;50.350;6.576;2024-02-14T07:58:01;96451.19;;;6.20;100.00
23229;BME280;11783;50.350;6.576;2024-02-14T08:00:26;96458.13;;;6.07;100.00
23229;BME280;11783;50.350;6.576;2024-02-14T08:02:52;96459.97;;;6.07;100.00
23229;BME280;11783;50.350;6.576;2024-02-14T08:05:17;96469.88;;;6.12;100.00
23229;BME280;11783;50.350;6.576;2024-02-14T08:07:44;96458.53;;;6.11;100.00
23229;BME280;11783;50.350;6.576;2024-02-14T08:10:11;96468.66;;;6.21;100.00
23229;BME280;11783;50.350;6.576;2024-02-14T08:12:37;96457.06;;;6.22;100.00
23229;BME280;11783;50.350;6.576;2024-02-14T08:15:02;96462.91;;;6.37;100.00
23229;BME280;11783;50.350;6.576;2024-02-14T08:17:31;96457.66;;;6.24;100.00
23229;BME280;11783;50.350;6.576;2024-02-14T08:19:56;96466.34;;;6.31;100.00
23229;BME280;11783;50.350;6.576;2024-02-14T08:22:22;96463.22;;;6.47;100.00
23229;BME280;11783;50.350;6.576;2024-02-14T08:24:47;96453.84;;;6.58;100.00
23229;BME280;11783;50.350;6.576;2024-02-14T08:27:13;96447.91;;;6.62;100.00
23229;BME280;11783;50.350;6.576;2024-02-14T08:29:38;96450.91;;;6.73;100.00
23229;BME280;11783;50.350;6.576;2024-02-14T08:32:03;96454.06;;;6.56;100.00
23229;BME280;11783;50.350;6.576;2024-02-14T08:34:30;96449.00;;;6.55;100.00
23229;BME280;11783;50.350;6.576;2024-02-14T08:36:55;96458.47;;;6.62;100.00
23229;BME280;11783;50.350;6.576;2024-02-14T08:39:21;96459.59;;;6.80;100.00
23229;BME280;11783;50.350;6.576;2024-02-14T08:41:46;96465.47;;;6.82;100.00
23229;BME280;11783;50.350;6.576;2024-02-14T08:44:13;96458.84;;;6.73;100.00
23229;BME280;11783;50.350;6.576;2024-02-14T08:46:38;96456.41;;;6.71;100.00
23229;BME280;11783;50.350;6.576;2024-02-14T08:49:04;96466.75;;;6.73;100.00
23229;BME280;11783;50.350;6.576;2024-02-14T08:51:35;96467.88;;;6.90;100.00
23229;BME280;11783;50.350;6.576;2024-02-14T08:54:00;96468.75;;;6.77;100.00
23229;BME280;11783;50.350;6.576;2024-02-14T08:56:28;96470.81;;;6.68;100.00
23229;BME280;11783;50.350;6.576;2024-02-14T08:58:53;96468.81;;;6.71;100.00
23229;BME280;11783;50.350;6.576;2024-02-14T09:01:19;96473.19;;;6.83;100.00
23229;BME280;11783;50.350;6.576;2024-02-14T09:03:46;96473.63;;;6.80;100.00
23229;BME280;11783;50.350;6.576;2024-02-14T09:06:13;96476.97;;;6.94;100.00
23229;BME280;11783;50.350;6.576;2024-02-14T09:08:40;96479.78;;;6.99;100.00
23229;BME280;11783;50.350;6.576;2024-02-14T09:11:06;96471.41;;;6.77;100.00
23229;BME280;11783;50.350;6.576;2024-02-14T09:13:31;96465.03;;;6.85;100.00
23229;BME280;11783;50.350;6.576;2024-02-14T09:15:57;96473.03;;;6.78;100.00
23229;BME280;11783;50.350;6.576;2024-02-14T09:18:22;96482.44;;;6.99;100.00
23229;BME280;11783;50.350;6.576;2024-02-14T09:20:49;96478.34;;;7.03;100.00
23229;BME280;11783;50.350;6.576;2024-02-14T09:23:16;96479.34;;;7.02;100.00
23229;BME280;11783;50.350;6.576;2024-02-14T09:25:46;96480.13;;;7.09;100.00
23229;BME280;11783;50.350;6.576;2024-02-14T09:28:12;96483.16;;;7.13;100.00
23229;BME280;11783;50.350;6.576;2024-02-14T09:30:39;96487.09;;;7.28;100.00
23229;BME280;11783;50.350;6.576;2024-02-14T09:33:04;96489.03;;;7.40;100.00
23229;BME280;11783;50.350;6.576;2024-02-14T09:35:30;96494.03;;;7.23;100.00
23229;BME280;11783;50.350;6.576;2024-02-14T09:37:55;96501.16;;;6.97;100.00
23229;BME280;11783;50.350;6.576;2024-02-14T09:40:21;96503.50;;;7.12;100.00
23229;BME280;11783;50.350;6.576;2024-02-14T09:42:56;96503.78;;;6.97;100.00
23229;BME280;11783;50.350;6.576;2024-02-14T09:45:26;96498.19;;;7.12;100.00
23229;BME280;11783;50.350;6.576;2024-02-14T09:47:55;96504.69;;;7.16;100.00
23229;BME280;11783;50.350;6.576;2024-02-14T09:50:21;96501.34;;;7.27;100.00
23229;BME280;11783;50.350;6.576;2024-02-14T09:52:49;96519.06;;;7.20;100.00
23229;BME280;11783;50.350;6.576;2024-02-14T09:55:17;96514.97;;;7.24;100.00
23229;BME280;11783;50.350;6.576;2024-02-14T09:57:43;96515.69;;;7.13;100.00
23229;BME280;11783;50.350;6.576;2024-02-14T10:00:12;96517.28;;;7.14;100.00
23229;BME280;11783;50.350;6.576;2024-02-14T10:02:41;96516.94;;;7.36;100.00
23229;BME280;11783;50.350;6.576;2024-02-14T10:05:07;96512.13;;;7.26;100.00
23229;BME280;11783;50.350;6.576;2024-02-14T10:07:42;96518.31;;;7.13;100.00
23229;BME280;11783;50.350;6.576;2024-02-14T10:10:08;96527.00;;;7.20;100.00
23229;BME280;11783;50.350;6.576;2024-02-14T10:12:33;96526.63;;;7.17;100.00
23229;BME280;11783;50.350;6.576;2024-02-14T10:14:59;96519.28;;;7.19;100.00
23229;BME280;11783;50.350;6.576;2024-02-14T10:17:24;96529.69;;;7.14;100.00
23229;BME280;11783;50.350;6.576;2024-02-14T10:20:01;96535.44;;;7.36;100.00
23229;BME280;11783;50.350;6.576;2024-02-14T10:22:37;96538.59;;;7.19;100.00
23229;BME280;11783;50.350;6.576;2024-02-14T10:25:04;96537.44;;;7.40;100.00
23229;BME280;11783;50.350;6.576;2024-02-14T10:27:36;96539.56;;;7.56;100.00
23229;BME280;11783;50.350;6.576;2024-02-14T10:30:07;96534.97;;;7.45;100.00
23229;BME280;11783;50.350;6.576;2024-02-14T10:32:38;96522.97;;;7.43;100.00
23229;BME280;11783;50.350;6.576;2024-02-14T10:35:08;96523.25;;;7.35;100.00
23229;BME280;11783;50.350;6.576;2024-02-14T10:37:34;96527.72;;;7.59;100.00
23229;BME280;11783;50.350;6.576;2024-02-14T10:40:01;96529.44;;;7.72;100.00
23229;BME280;11783;50.350;6.576;2024-02-14T10:42:28;96531.75;;;7.62;100.00
23229;BME280;11783;50.350;6.576;2024-02-14T10:44:54;96523.91;;;7.55;100.00
23229;BME280;11783;50.350;6.576;2024-02-14T10:47:25;96533.72;;;7.48;100.00
23229;BME280;11783;50.350;6.576;2024-02-14T10:49:50;96532.06;;;7.53;100.00
23229;BME280;11783;50.350;6.576;2024-02-14T10:52:17;96517.91;;;7.41;100.00
23229;BME280;11783;50.350;6.576;2024-02-14T10:54:51;96519.91;;;7.46;100.00
23229;BME280;11783;50.350;6.576;2024-02-14T10:57:24;96513.47;;;7.60;100.00
23229;BME280;11783;50.350;6.576;2024-02-14T10:59:50;96512.41;;;7.68;100.00
23229;BME280;11783;50.350;6.576;2024-02-14T11:02:17;96518.44;;;7.75;100.00
23229;BME280;11783;50.350;6.576;2024-02-14T11:04:43;96516.06;;;7.67;100.00
23229;BME280;11783;50.350;6.576;2024-02-14T11:07:09;96513.13;;;7.75;100.00
23229;BME280;11783;50.350;6.576;2024-02-14T11:09:38;96505.16;;;7.56;100.00
23229;BME280;11783;50.350;6.576;2024-02-14T11:12:08;96509.97;;;7.66;100.00
23229;BME280;11783;50.350;6.576;2024-02-14T11:14:35;96505.72;;;7.65;100.00
23229;BME280;11783;50.350;6.576;2024-02-14T11:17:09;96503.16;;;7.77;100.00
23229;BME280;11783;50.350;6.576;2024-02-14T11:19:35;96509.91;;;7.73;100.00
23229;BME280;11783;50.350;6.576;2024-02-14T11:22:17;96508.94;;;7.67;100.00
23229;BME280;11783;50.350;6.576;2024-02-14T11:24:45;96511.44;;;7.80;100.00
23229;BME280;11783;50.350;6.576;2024-02-14T11:27:11;96501.84;;;7.61;100.00
23229;BME280;11783;50.350;6.576;2024-02-14T11:29:39;96508.81;;;7.80;100.00
23229;BME280;11783;50.350;6.576;2024-02-14T11:32:06;96515.19;;;7.73;100.00
23229;BME280;11783;50.350;6.576;2024-02-14T11:34:34;96513.56;;;7.72;100.00
23229;BME280;11783;50.350;6.576;2024-02-14T11:37:00;96510.28;;;7.76;100.00
23229;BME280;11783;50.350;6.576;2024-02-14T11:39:26;96514.72;;;7.82;100.00
23229;BME280;11783;50.350;6.576;2024-02-14T11:41:51;96505.97;;;7.82;100.00
23229;BME280;11783;50.350;6.576;2024-02-14T11:44:19;96518.22;;;7.76;100.00
23229;BME280;11783;50.350;6.576;2024-02-14T11:46:47;96513.00;;;7.70;100.00
23229;BME280;11783;50.350;6.576;2024-02-14T11:49:12;96513.38;;;7.92;100.00
23229;BME280;11783;50.350;6.576;2024-02-14T11:51:38;96510.16;;;8.08;100.00
23229;BME280;11783;50.350;6.576;2024-02-14T11:54:05;96506.16;;;7.80;100.00
23229;BME280;11783;50.350;6.576;2024-02-14T11:56:32;96502.72;;;7.98;100.00
23229;BME280;11783;50.350;6.576;2024-02-14T11:59:07;96501.78;;;8.11;100.00
23229;BME280;11783;50.350;6.576;2024-02-14T12:01:36;96502.94;;;8.15;100.00
23229;BME280;11783;50.350;6.576;2024-02-14T12:04:03;96508.19;;;8.22;100.00
23229;BME280;11783;50.350;6.576;2024-02-14T12:06:30;96513.41;;;8.28;100.00
23229;BME280;11783;50.350;6.576;2024-02-14T12:09:03;96510.09;;;8.33;100.00
23229;BME280;11783;50.350;6.576;2024-02-14T12:11:38;96502.59;;;8.30;100.00
23229;BME280;11783;50.350;6.576;2024-02-14T12:14:08;96505.13;;;8.43;100.00
23229;BME280;11783;50.350;6.576;2024-02-14T12:16:35;96503.94;;;8.39;100.00
23229;BME280;11783;50.350;6.576;2024-02-14T12:19:08;96511.28;;;8.18;100.00
23229;BME280;11783;50.350;6.576;2024-02-14T12:21:35;96510.63;;;8.05;100.00
23229;BME280;11783;50.350;6.576;2024-02-14T12:24:01;96508.19;;;8.22;100.00
23229;BME280;11783;50.350;6.576;2024-02-14T12:26:27;96512.00;;;8.07;100.00
23229;BME280;11783;50.350;6.576;2024-02-14T12:28:53;96509.50;;;8.12;100.00
23229;BME280;11783;50.350;6.576;2024-02-14T12:31:22;96513.41;;;8.10;100.00
23229;BME280;11783;50.350;6.576;2024-02-14T12:33:48;96517.66;;;8.29;100.00
23229;BME280;11783;50.350;6.576;2024-02-14T12:36:14;96508.66;;;8.37;100.00
23229;BME280;11783;50.350;6.576;2024-02-14T12:38:40;96499.69;;;8.38;100.00
23229;BME280;11783;50.350;6.576;2024-02-14T12:41:05;96500.09;;;8.35;100.00
23229;BME280;11783;50.350;6.576;2024-02-14T12:43:31;96503.84;;;8.27;100.00
23229;BME280;11783;50.350;6.576;2024-02-14T12:45:56;96497.38;;;8.23;100.00
23229;BME280;11783;50.350;6.576;2024-02-14T12:48:23;96495.63;;;8.35;100.00
23229;BME280;11783;50.350;6.576;2024-02-14T12:50:53;96497.84;;;8.38;100.00
23229;BME280;11783;50.350;6.576;2024-02-14T12:53:18;96503.50;;;8.42;100.00
23229;BME280;11783;50.350;6.576;2024-02-14T12:55:45;96512.81;;;8.63;100.00